EISG/SXL METAR and TAF weather

Enter ICAO airport designator
Station Type Date Time Source
EISG METAR 2019/12/14 11:00 UTC NOAA

EISG 141100Z 24020G34KT 9999 FEW016 04/02 Q0981


Station Type Date Time Source
EISG Decoded METAR 2019/12/14 11:00 UTC NOAA

Station name not available
Dec 14, 2019 - 06:00 AM EST / 2019.12.14 1100 UTC
Wind: from the WSW (240 degrees) at 23 MPH (20 KT) gusting to 39 MPH (34 KT):0
Visibility: greater than 7 mile(s):0
Sky conditions: mostly clear
Temperature: 39 F (4 C)
Dew Point: 35 F (2 C)
Relative Humidity: 86%
Pressure (altimeter): 28.97 in. Hg (0981 hPa)
ob: EISG 141100Z 24020G34KT 9999 FEW016 04/02 Q0981
cycle: 11

Station Type Date Time Source
EISG TAF UTC NOAA

Error!

Example: see airport list